createdAt,value
2023-05-03T00:01:38.173Z,102385.31
2023-05-03T00:04:05.123Z,102394.19
2023-05-03T00:06:31.976Z,102392.66
2023-05-03T00:08:58.772Z,102390.00
2023-05-03T00:11:25.624Z,102391.56
2023-05-03T00:13:52.588Z,102394.56
2023-05-03T00:16:19.866Z,102390.13
2023-05-03T00:18:49.419Z,102391.81
2023-05-03T00:21:16.844Z,102388.06
2023-05-03T00:23:43.652Z,102388.31
2023-05-03T00:26:10.470Z,102383.28
2023-05-03T00:28:37.571Z,102388.78
2023-05-03T00:31:08.739Z,102383.88
2023-05-03T00:33:36.191Z,102385.06
2023-05-03T00:36:12.336Z,102383.25
2023-05-03T00:38:39.584Z,102381.72
2023-05-03T00:41:07.242Z,102376.44
2023-05-03T00:43:35.634Z,102377.38
2023-05-03T00:46:15.287Z,102379.19
2023-05-03T00:48:43.373Z,102378.97
2023-05-03T00:51:13.396Z,102381.50
2023-05-03T00:53:40.825Z,102372.75
2023-05-03T00:56:07.792Z,102385.66
2023-05-03T00:58:36.635Z,102383.13
2023-05-03T01:01:03.705Z,102377.16
2023-05-03T01:03:36.917Z,102376.22
2023-05-03T01:06:13.438Z,102374.28
2023-05-03T01:08:44.710Z,102368.31
2023-05-03T01:11:17.281Z,102370.31
2023-05-03T01:13:47.788Z,102367.69
2023-05-03T01:16:24.297Z,102372.00
2023-05-03T01:18:52.513Z,102363.25
2023-05-03T01:21:20.190Z,102369.25
2023-05-03T01:23:52.245Z,102366.75
2023-05-03T01:26:21.064Z,102365.91
2023-05-03T01:28:48.019Z,102355.59
2023-05-03T01:31:18.461Z,102349.50
2023-05-03T01:33:49.555Z,102350.34
2023-05-03T01:36:19.956Z,102349.72
2023-05-03T01:38:47.747Z,102354.19
2023-05-03T01:41:16.894Z,102362.78
2023-05-03T01:43:44.300Z,102350.44
2023-05-03T01:46:11.645Z,102348.75
2023-05-03T01:48:38.637Z,102341.94
2023-05-03T01:51:06.270Z,102350.81
2023-05-03T01:53:33.085Z,102347.22
2023-05-03T01:55:59.982Z,102346.13
2023-05-03T01:58:26.820Z,102335.00
2023-05-03T02:00:53.596Z,102346.38
2023-05-03T02:03:21.269Z,102337.53
2023-05-03T02:05:48.736Z,102334.88
2023-05-03T02:08:16.896Z,102348.75
2023-05-03T02:10:45.064Z,102343.38
2023-05-03T02:13:11.951Z,102354.75
2023-05-03T02:15:39.019Z,102344.91
2023-05-03T02:18:05.912Z,102351.88
2023-05-03T02:20:35.666Z,102354.50
2023-05-03T02:23:02.428Z,102356.19
2023-05-03T02:25:29.288Z,102357.41
2023-05-03T02:27:56.345Z,102357.41
2023-05-03T02:30:23.231Z,102356.81
2023-05-03T02:32:50.076Z,102349.03
2023-05-03T02:35:16.962Z,102354.66
2023-05-03T02:37:44.025Z,102350.34
2023-05-03T02:40:11.323Z,102347.22
2023-05-03T02:42:38.101Z,102352.00
2023-05-03T02:45:05.209Z,102345.06
2023-05-03T02:47:32.041Z,102347.81
2023-05-03T02:49:58.872Z,102353.31
2023-05-03T02:52:25.857Z,102351.03
2023-05-03T02:54:52.671Z,102347.81
2023-05-03T02:57:19.458Z,102344.19
2023-05-03T02:59:46.297Z,102345.66
2023-05-03T03:02:13.059Z,102349.47
2023-05-03T03:04:39.852Z,102339.31
2023-05-03T03:07:06.758Z,102338.81
2023-05-03T03:09:33.578Z,102337.34
2023-05-03T03:12:03.539Z,102334.84
2023-05-03T03:14:30.601Z,102332.34
2023-05-03T03:16:58.513Z,102331.75
2023-05-03T03:19:25.395Z,102326.69
2023-05-03T03:21:52.180Z,102323.81
2023-05-03T03:24:18.983Z,102330.03
2023-05-03T03:26:45.810Z,102314.47
2023-05-03T03:29:15.062Z,102322.84
2023-05-03T03:31:41.908Z,102314.09
2023-05-03T03:34:08.842Z,102311.56
2023-05-03T03:36:37.382Z,102297.47
2023-05-03T03:39:05.465Z,102297.47
2023-05-03T03:41:33.222Z,102300.09
2023-05-03T03:43:59.976Z,102296.59
2023-05-03T03:46:26.805Z,102298.50
2023-05-03T03:48:53.752Z,102288.00
2023-05-03T03:51:20.674Z,102286.41
2023-05-03T03:53:47.561Z,102282.00
2023-05-03T03:56:14.371Z,102284.41
2023-05-03T03:58:41.135Z,102283.31
2023-05-03T04:01:08.025Z,102282.47
2023-05-03T04:03:35.104Z,102278.91
2023-05-03T04:06:02.226Z,102271.00
2023-05-03T04:08:29.096Z,102278.06
2023-05-03T04:10:56.176Z,102271.59
2023-05-03T04:13:23.050Z,102267.06
2023-05-03T04:15:50.011Z,102266.97
2023-05-03T04:18:16.880Z,102262.66
2023-05-03T04:20:44.172Z,102262.66
2023-05-03T04:23:11.292Z,102263.25
2023-05-03T04:25:39.250Z,102258.94
2023-05-03T04:28:07.198Z,102263.34
2023-05-03T04:30:34.693Z,102263.34
2023-05-03T04:33:01.795Z,102268.63
2023-05-03T04:35:29.160Z,102265.97
2023-05-03T04:37:56.042Z,102272.09
2023-05-03T04:40:23.117Z,102271.13
2023-05-03T04:42:49.884Z,102276.28
2023-05-03T04:45:16.940Z,102273.88
2023-05-03T04:47:43.806Z,102278.09
2023-05-03T04:50:11.491Z,102267.66
2023-05-03T04:52:38.605Z,102263.34
2023-05-03T04:55:05.847Z,102265.78
2023-05-03T04:57:33.874Z,102265.88
2023-05-03T05:00:01.543Z,102264.94
2023-05-03T05:02:28.791Z,102269.47
2023-05-03T05:04:55.712Z,102281.66
2023-05-03T05:07:22.485Z,102277.72
2023-05-03T05:09:49.394Z,102281.06
2023-05-03T05:12:16.198Z,102285.97
2023-05-03T05:14:42.950Z,102288.03
2023-05-03T05:17:10.333Z,102286.09
2023-05-03T05:19:37.306Z,102282.75
2023-05-03T05:22:04.114Z,102291.59
2023-05-03T05:24:31.065Z,102292.44
2023-05-03T05:26:57.947Z,102299.03
2023-05-03T05:29:25.152Z,102294.59
2023-05-03T05:31:53.321Z,102304.31
2023-05-03T05:34:20.278Z,102301.66
2023-05-03T05:36:47.331Z,102305.00
2023-05-03T05:39:14.268Z,102304.16
2023-05-03T05:41:41.300Z,102303.22
2023-05-03T05:44:08.362Z,102306.19
2023-05-03T05:46:35.176Z,102314.19
2023-05-03T05:49:02.066Z,102323.88
2023-05-03T05:51:30.923Z,102305.94
2023-05-03T05:53:58.143Z,102318.66
2023-05-03T05:56:25.117Z,102312.19
2023-05-03T05:58:52.019Z,102318.53
2023-05-03T06:01:18.851Z,102315.47
2023-05-03T06:03:45.870Z,102313.91
2023-05-03T06:06:12.706Z,102320.72
2023-05-03T06:08:39.635Z,102320.38
2023-05-03T06:11:06.601Z,102320.63
2023-05-03T06:13:34.902Z,102321.84
2023-05-03T06:16:03.398Z,102328.28
2023-05-03T06:18:30.234Z,102330.81
2023-05-03T06:20:57.662Z,102324.94
2023-05-03T06:23:24.611Z,102325.97
2023-05-03T06:25:52.067Z,102326.28
2023-05-03T06:28:19.200Z,102324.53
2023-05-03T06:30:49.834Z,102327.16
2023-05-03T06:33:16.801Z,102318.13
2023-05-03T06:35:43.856Z,102320.59
2023-05-03T06:38:12.357Z,102321.50
2023-05-03T06:40:41.662Z,102321.38
2023-05-03T06:43:08.600Z,102323.13
2023-05-03T06:45:36.237Z,102313.75
2023-05-03T06:48:03.158Z,102307.63
2023-05-03T06:50:30.342Z,102309.63
2023-05-03T06:52:57.380Z,102310.25
2023-05-03T06:55:24.808Z,102310.19
2023-05-03T06:57:52.829Z,102309.34
2023-05-03T07:00:21.627Z,102309.94
2023-05-03T07:02:48.970Z,102305.78
2023-05-03T07:05:16.249Z,102295.81
2023-05-03T07:07:43.264Z,102296.53
2023-05-03T07:10:10.720Z,102293.25
2023-05-03T07:12:37.650Z,102296.03
2023-05-03T07:15:04.840Z,102295.34
2023-05-03T07:17:32.206Z,102286.84
2023-05-03T07:19:59.618Z,102291.75
2023-05-03T07:22:28.002Z,102293.69
2023-05-03T07:24:55.226Z,102291.91
2023-05-03T07:27:22.247Z,102280.75
2023-05-03T07:29:49.440Z,102296.22
2023-05-03T07:32:17.302Z,102293.41
2023-05-03T07:34:44.497Z,102293.41
2023-05-03T07:37:11.924Z,102305.41
2023-05-03T07:39:39.759Z,102296.63
2023-05-03T07:42:07.330Z,102292.19
2023-05-03T07:44:34.622Z,102290.81
2023-05-03T07:47:02.039Z,102290.38
2023-05-03T07:49:29.277Z,102279.91
2023-05-03T07:51:56.540Z,102298.78
2023-05-03T07:54:24.013Z,102299.84
2023-05-03T07:56:52.813Z,102302.91
2023-05-03T07:59:21.677Z,102303.53
2023-05-03T08:01:48.739Z,102297.56
2023-05-03T08:04:16.221Z,102299.19
2023-05-03T08:06:43.590Z,102292.22
2023-05-03T08:09:12.146Z,102298.34
2023-05-03T08:11:40.971Z,102294.09
2023-05-03T08:14:09.760Z,102289.34
2023-05-03T08:16:37.636Z,102292.56
2023-05-03T08:19:05.421Z,102288.66
2023-05-03T08:21:33.765Z,102290.72
2023-05-03T08:24:01.571Z,102293.06
2023-05-03T08:26:30.242Z,102289.44
2023-05-03T08:28:58.054Z,102282.75
2023-05-03T08:31:25.238Z,102282.31
2023-05-03T08:33:52.495Z,102274.94
2023-05-03T08:36:19.654Z,102280.28
2023-05-03T08:38:47.079Z,102279.34
2023-05-03T08:41:19.407Z,102296.63
2023-05-03T08:43:47.231Z,102288.81
2023-05-03T08:46:15.173Z,102293.97
2023-05-03T08:48:43.633Z,102282.78
2023-05-03T08:51:11.191Z,102275.44
2023-05-03T08:53:38.287Z,102270.00
2023-05-03T08:56:11.291Z,102267.53
2023-05-03T08:58:39.050Z,102270.72
2023-05-03T09:01:07.029Z,102269.97
2023-05-03T09:03:34.859Z,102275.94
2023-05-03T09:06:05.476Z,102272.69
2023-05-03T09:08:43.004Z,102277.66
2023-05-03T09:11:20.712Z,102281.22
2023-05-03T09:13:47.938Z,102278.44
2023-05-03T09:16:32.701Z,102273.59
2023-05-03T09:19:04.798Z,102279.53
2023-05-03T09:21:32.076Z,102276.88
2023-05-03T09:23:59.809Z,102277.03
2023-05-03T09:26:37.573Z,102271.28
2023-05-03T09:29:05.494Z,102273.75
2023-05-03T09:31:33.441Z,102269.69
2023-05-03T09:34:00.558Z,102272.50
2023-05-03T09:36:28.235Z,102267.91
2023-05-03T09:38:56.513Z,102269.34
2023-05-03T09:41:27.362Z,102281.34
2023-05-03T09:43:56.576Z,102266.75
2023-05-03T09:46:26.215Z,102264.78
2023-05-03T09:48:55.848Z,102263.59
2023-05-03T09:51:23.304Z,102263.28
2023-05-03T09:53:50.868Z,102253.16
2023-05-03T09:56:21.180Z,102269.00
2023-05-03T09:58:48.335Z,102255.28
2023-05-03T10:01:16.638Z,102264.19
2023-05-03T10:03:44.850Z,102251.81
2023-05-03T10:06:22.433Z,102253.13
2023-05-03T10:08:53.215Z,102266.16
2023-05-03T10:11:20.285Z,102257.13
2023-05-03T10:13:47.314Z,102266.19
2023-05-03T10:16:18.262Z,102265.72
2023-05-03T10:18:48.483Z,102258.97
2023-05-03T10:21:19.323Z,102256.69
2023-05-03T10:23:55.444Z,102254.78
2023-05-03T10:26:22.899Z,102249.34
2023-05-03T10:28:50.212Z,102248.97
2023-05-03T10:31:26.664Z,102241.84
2023-05-03T10:33:53.820Z,102243.78
2023-05-03T10:36:21.069Z,102251.81
2023-05-03T10:38:48.474Z,102248.81
2023-05-03T10:41:24.712Z,102240.91
2023-05-03T10:43:51.756Z,102239.00
2023-05-03T10:46:28.544Z,102224.84
2023-05-03T10:49:05.604Z,102224.44
2023-05-03T10:51:37.601Z,102217.19
2023-05-03T10:54:04.791Z,102218.53
2023-05-03T10:56:31.980Z,102214.38
2023-05-03T10:58:59.431Z,102214.00
2023-05-03T11:01:28.747Z,102206.13
2023-05-03T11:04:05.394Z,102215.13
2023-05-03T11:06:34.860Z,102204.34
2023-05-03T11:09:02.998Z,102207.06
2023-05-03T11:11:30.259Z,102207.91
2023-05-03T11:13:58.057Z,102200.31
2023-05-03T11:16:25.792Z,102193.03
2023-05-03T11:18:53.659Z,102194.00
2023-05-03T11:21:21.813Z,102206.16
2023-05-03T11:23:49.092Z,102183.91
2023-05-03T11:26:26.704Z,102182.31
2023-05-03T11:28:54.527Z,102181.22
2023-05-03T11:31:22.022Z,102184.25
2023-05-03T11:33:49.836Z,102180.13
2023-05-03T11:36:17.361Z,102186.94
2023-05-03T11:38:44.420Z,102177.13
2023-05-03T11:41:14.693Z,102174.19
2023-05-03T11:43:42.900Z,102173.38
2023-05-03T11:46:10.655Z,102163.06
2023-05-03T11:48:38.974Z,102164.53
2023-05-03T11:51:08.069Z,102162.03
2023-05-03T11:53:40.339Z,102162.53
2023-05-03T11:56:19.648Z,102162.03
2023-05-03T11:58:49.735Z,102150.91
2023-05-03T12:01:16.910Z,102145.63
2023-05-03T12:03:44.135Z,102140.00
2023-05-03T12:06:13.680Z,102132.31
2023-05-03T12:08:44.062Z,102125.16
2023-05-03T12:11:13.792Z,102127.34
2023-05-03T12:13:41.776Z,102114.06
2023-05-03T12:16:18.567Z,102111.22
2023-05-03T12:18:50.855Z,102116.22
2023-05-03T12:23:52.065Z,102112.88
2023-05-03T12:26:22.808Z,102112.75
2023-05-03T12:28:50.169Z,102096.31
2023-05-03T12:31:18.940Z,102105.81
2023-05-03T12:34:06.216Z,102103.06
2023-05-03T12:36:37.387Z,102094.59
2023-05-03T12:39:09.339Z,102106.56
2023-05-03T12:44:10.311Z,102108.38
2023-05-03T12:46:38.942Z,102102.88
2023-05-03T12:49:08.455Z,102092.41
2023-05-03T12:51:36.312Z,102085.94
2023-05-03T12:54:04.278Z,102095.44
2023-05-03T12:56:32.946Z,102076.31
2023-05-03T13:04:32.973Z,102072.34
2023-05-03T13:06:48.160Z,102076.97
2023-05-03T13:09:21.139Z,102072.00
2023-05-03T13:11:50.240Z,102088.63
2023-05-03T13:14:17.684Z,102071.66
2023-05-03T13:16:45.956Z,102070.81
2023-05-03T13:19:13.382Z,102053.38
2023-05-03T13:21:40.485Z,102054.72
2023-05-03T13:24:08.048Z,102063.34
2023-05-03T13:26:35.567Z,102056.38
2023-05-03T13:29:02.986Z,102060.03
2023-05-03T13:31:30.669Z,102057.72
2023-05-03T13:33:58.018Z,102057.38
2023-05-03T13:36:25.275Z,102049.41
2023-05-03T13:38:52.492Z,102044.56
2023-05-03T13:41:20.127Z,102042.22
2023-05-03T13:43:47.615Z,102035.78
2023-05-03T13:46:14.825Z,102027.78
2023-05-03T13:48:42.729Z,102027.91
2023-05-03T13:51:10.350Z,102028.75
2023-05-03T13:53:39.673Z,102049.47
2023-05-03T13:56:25.204Z,102025.75
2023-05-03T13:58:52.437Z,102025.22
2023-05-03T14:01:19.738Z,102024.56
2023-05-03T14:03:47.066Z,102010.09
2023-05-03T14:06:14.407Z,102011.44
2023-05-03T14:08:41.920Z,102018.09
2023-05-03T14:11:16.573Z,102005.63
2023-05-03T14:13:56.306Z,101999.50
2023-05-03T14:16:36.445Z,102003.34
2023-05-03T14:19:11.222Z,102001.38
2023-05-03T14:21:38.820Z,101988.91
2023-05-03T14:24:07.047Z,101981.94
2023-05-03T14:26:34.761Z,101996.22
2023-05-03T14:29:02.510Z,101981.28
2023-05-03T14:31:29.724Z,101991.56
2023-05-03T14:33:57.301Z,101987.09
2023-05-03T14:36:24.803Z,101979.59
2023-05-03T14:38:51.872Z,101975.97
2023-05-03T14:41:19.178Z,101978.13
2023-05-03T14:43:46.884Z,101968.63
2023-05-03T14:46:14.527Z,101979.72
2023-05-03T14:48:42.601Z,101974.09
2023-05-03T14:51:09.780Z,101971.44
2023-05-03T14:53:37.399Z,101976.25
2023-05-03T14:56:04.951Z,101968.41
2023-05-03T14:58:32.606Z,101967.31
2023-05-03T15:01:00.349Z,101968.00
2023-05-03T15:03:28.120Z,101967.94
2023-05-03T15:05:56.711Z,101965.41
2023-05-03T15:08:24.171Z,101961.63
2023-05-03T15:10:51.854Z,101963.78
2023-05-03T15:13:19.896Z,101988.00
2023-05-03T15:15:47.859Z,101973.41
2023-05-03T15:18:16.138Z,101972.22
2023-05-03T15:20:44.119Z,101982.00
2023-05-03T15:23:11.282Z,101971.38
2023-05-03T15:25:38.659Z,101973.19
2023-05-03T15:28:09.042Z,101961.94
2023-05-03T15:30:36.837Z,101971.91
2023-05-03T15:33:04.968Z,101965.75
2023-05-03T15:35:33.288Z,101963.09
2023-05-03T15:38:01.147Z,101965.91
2023-05-03T15:40:28.660Z,101963.06
2023-05-03T15:42:56.392Z,101962.84
2023-05-03T15:45:24.877Z,101948.94
2023-05-03T15:47:52.501Z,101953.22
2023-05-03T15:50:19.650Z,101953.22
2023-05-03T15:52:47.332Z,101950.75
2023-05-03T15:55:14.812Z,101946.78
2023-05-03T15:57:42.014Z,101948.25
2023-05-03T16:00:10.105Z,101949.28
2023-05-03T16:02:38.874Z,101944.75
2023-05-03T16:05:06.297Z,101950.28
2023-05-03T16:07:33.466Z,101947.06
2023-05-03T16:10:00.666Z,101942.78
2023-05-03T16:12:28.141Z,101951.19
2023-05-03T16:14:56.775Z,101946.00
2023-05-03T16:17:32.612Z,101939.97
2023-05-03T16:20:07.146Z,101933.84
2023-05-03T16:22:34.690Z,101931.66
2023-05-03T16:25:02.376Z,101924.53
2023-05-03T16:27:29.663Z,101929.50
2023-05-03T16:29:58.876Z,101920.72
2023-05-03T16:32:26.845Z,101915.41
2023-05-03T16:34:54.423Z,101917.78
2023-05-03T16:37:22.113Z,101914.13
2023-05-03T16:39:49.521Z,101915.63
2023-05-03T16:42:20.083Z,101921.63
2023-05-03T16:44:47.961Z,101915.63
2023-05-03T16:50:02.348Z,101909.13
2023-05-03T16:52:30.197Z,101909.47
2023-05-03T16:54:58.420Z,101923.38
2023-05-03T16:57:25.371Z,101925.53
2023-05-03T16:59:53.447Z,101913.03
2023-05-03T17:02:22.383Z,101913.25
2023-05-03T17:04:50.660Z,101912.25
2023-05-03T17:07:19.689Z,101911.19
2023-05-03T17:09:47.726Z,101910.97
2023-05-03T17:12:14.907Z,101905.88
2023-05-03T17:14:42.913Z,101902.38
2023-05-03T17:17:10.801Z,101900.72
2023-05-03T17:19:38.261Z,101892.91
2023-05-03T17:22:05.767Z,101894.56
2023-05-03T17:24:34.832Z,101897.00
2023-05-03T17:27:02.244Z,101898.28
2023-05-03T17:29:29.767Z,101894.88
2023-05-03T17:31:57.329Z,101888.06
2023-05-03T17:34:25.654Z,101888.25
2023-05-03T17:36:59.113Z,101878.28
2023-05-03T17:39:26.727Z,101871.19
2023-05-03T17:41:56.242Z,101869.88
2023-05-03T17:44:23.701Z,101879.97
2023-05-03T17:46:52.180Z,101870.81
2023-05-03T17:49:19.836Z,101864.84
2023-05-03T17:51:47.277Z,101878.75
2023-05-03T17:54:14.837Z,101864.03
2023-05-03T17:56:44.468Z,101871.06
2023-05-03T17:59:11.576Z,101870.16
2023-05-03T18:01:39.726Z,101874.50
2023-05-03T18:04:07.255Z,101880.41
2023-05-03T18:06:34.612Z,101871.63
2023-05-03T18:09:01.871Z,101875.41
2023-05-03T18:11:29.193Z,101866.09
2023-05-03T18:13:56.609Z,101864.59
2023-05-03T18:16:23.953Z,101869.19
2023-05-03T18:18:52.881Z,101863.53
2023-05-03T18:21:22.276Z,101862.19
2023-05-03T18:23:49.324Z,101857.72
2023-05-03T18:26:16.442Z,101858.69
2023-05-03T18:28:43.550Z,101854.84
2023-05-03T18:31:12.181Z,101854.03
2023-05-03T18:33:41.527Z,101851.69
2023-05-03T18:36:12.274Z,101857.28
2023-05-03T18:38:40.085Z,101852.28
2023-05-03T18:41:18.077Z,101849.31
2023-05-03T18:43:46.375Z,101853.94
2023-05-03T18:46:22.822Z,101851.31
2023-05-03T18:48:50.165Z,101840.47
2023-05-03T18:51:18.722Z,101836.31
2023-05-03T18:53:46.006Z,101844.53
2023-05-03T18:56:12.965Z,101839.25
2023-05-03T18:58:40.083Z,101842.06
2023-05-03T19:01:07.713Z,101840.84
2023-05-03T19:03:36.174Z,101834.31
2023-05-03T19:06:09.506Z,101832.78
2023-05-03T19:08:36.870Z,101831.81
2023-05-03T19:11:07.526Z,101824.84
2023-05-03T19:13:34.479Z,101818.34
2023-05-03T19:16:01.413Z,101831.03
2023-05-03T19:18:28.468Z,101834.81
2023-05-03T19:20:56.872Z,101830.00
2023-05-03T19:23:24.207Z,101825.97
2023-05-03T19:25:51.268Z,101825.44
2023-05-03T19:28:18.244Z,101833.50
2023-05-03T19:30:46.205Z,101838.13
2023-05-03T19:33:13.606Z,101826.31
2023-05-03T19:35:40.994Z,101829.22
2023-05-03T19:38:07.915Z,101837.56
2023-05-03T19:40:34.891Z,101834.66
2023-05-03T19:43:02.568Z,101833.16
2023-05-03T19:45:29.592Z,101834.00
2023-05-03T19:47:56.508Z,101829.81
2023-05-03T19:50:24.187Z,101839.69
2023-05-03T19:52:54.025Z,101838.44
2023-05-03T19:55:21.142Z,101840.25
2023-05-03T19:57:48.308Z,101840.25
2023-05-03T20:00:16.153Z,101844.97
2023-05-03T20:02:43.190Z,101843.19
2023-05-03T20:05:10.460Z,101835.53
2023-05-03T20:07:37.778Z,101825.53
2023-05-03T20:10:05.804Z,101834.28
2023-05-03T20:12:34.210Z,101827.75
2023-05-03T20:15:01.182Z,101830.00
2023-05-03T20:17:28.383Z,101835.69
2023-05-03T20:19:55.372Z,101827.66
2023-05-03T20:22:22.317Z,101828.63
2023-05-03T20:24:50.661Z,101822.25
2023-05-03T20:27:19.351Z,101823.22
2023-05-03T20:29:46.407Z,101824.31
2023-05-03T20:32:13.621Z,101819.47
2023-05-03T20:34:40.629Z,101810.47
2023-05-03T20:37:07.533Z,101807.25
2023-05-03T20:39:35.684Z,101795.03
2023-05-03T20:42:02.779Z,101809.63
2023-05-03T20:44:29.671Z,101795.75
2023-05-03T20:46:56.530Z,101798.81
2023-05-03T20:49:23.464Z,101797.84
2023-05-03T20:51:50.312Z,101791.31
2023-05-03T20:54:17.362Z,101801.69
2023-05-03T20:56:44.192Z,101788.66
2023-05-03T20:59:11.074Z,101783.53
2023-05-03T21:01:39.759Z,101787.84
2023-05-03T21:04:07.211Z,101792.28
2023-05-03T21:06:36.411Z,101788.09
2023-05-03T21:09:03.475Z,101783.94
2023-05-03T21:11:30.404Z,101787.44
2023-05-03T21:13:58.974Z,101785.63
2023-05-03T21:16:27.314Z,101784.78
2023-05-03T21:18:54.244Z,101782.16
2023-05-03T21:21:21.180Z,101783.81
2023-05-03T21:23:48.143Z,101796.31
2023-05-03T21:26:15.052Z,101787.25
2023-05-03T21:28:41.951Z,101785.47
2023-05-03T21:31:09.875Z,101777.56
2023-05-03T21:33:36.818Z,101781.88
2023-05-03T21:36:04.860Z,101789.66
2023-05-03T21:38:31.721Z,101784.22
2023-05-03T21:41:02.453Z,101787.97
2023-05-03T21:43:29.240Z,101767.00
2023-05-03T21:45:56.985Z,101773.94
2023-05-03T21:48:24.724Z,101768.66
2023-05-03T21:50:51.859Z,101765.06
2023-05-03T21:53:18.775Z,101763.53
2023-05-03T21:55:46.860Z,101759.78
2023-05-03T21:58:14.258Z,101757.41
2023-05-03T22:00:41.617Z,101756.03
2023-05-03T22:03:08.599Z,101750.91
2023-05-03T22:05:37.919Z,101750.22
2023-05-03T22:08:06.215Z,101742.31
2023-05-03T22:10:33.401Z,101741.47
2023-05-03T22:13:00.625Z,101742.59
2023-05-03T22:15:27.798Z,101736.59
2023-05-03T22:17:54.768Z,101732.44
2023-05-03T22:20:21.711Z,101727.44
2023-05-03T22:22:48.651Z,101719.25
2023-05-03T22:25:24.696Z,101714.69
2023-05-03T22:27:52.274Z,101721.06
2023-05-03T22:30:19.431Z,101721.75
2023-05-03T22:32:47.220Z,101727.03
2023-05-03T22:35:14.628Z,101727.03
2023-05-03T22:37:41.916Z,101728.97
2023-05-03T22:40:09.892Z,101724.69
2023-05-03T22:42:37.198Z,101720.38
2023-05-03T22:45:04.660Z,101712.59
2023-05-03T22:47:31.576Z,101718.53
2023-05-03T22:49:58.515Z,101712.00
2023-05-03T22:52:25.398Z,101704.53
2023-05-03T22:54:56.609Z,101703.25
2023-05-03T22:57:23.458Z,101699.78
2023-05-03T22:59:50.274Z,101694.78
2023-05-03T23:02:18.036Z,101692.31
2023-05-03T23:04:45.049Z,101693.38
2023-05-03T23:07:11.810Z,101686.88
2023-05-03T23:09:38.786Z,101696.56
2023-05-03T23:12:05.722Z,101694.94
2023-05-03T23:14:32.560Z,101685.78
2023-05-03T23:16:59.401Z,101687.44
2023-05-03T23:19:26.825Z,101690.06
2023-05-03T23:21:53.736Z,101688.66
2023-05-03T23:24:20.653Z,101686.19
2023-05-03T23:26:47.506Z,101677.31
2023-05-03T23:29:15.001Z,101668.41
2023-05-03T23:31:42.323Z,101662.47
2023-05-03T23:34:09.816Z,101658.28
2023-05-03T23:36:36.685Z,101651.50
2023-05-03T23:39:03.768Z,101651.66
2023-05-03T23:41:30.655Z,101657.19
2023-05-03T23:43:57.715Z,101654.69
2023-05-03T23:46:24.506Z,101649.56
2023-05-03T23:48:51.446Z,101645.13
2023-05-03T23:51:18.467Z,101639.84
2023-05-03T23:53:45.304Z,101635.53
2023-05-03T23:56:12.062Z,101629.31
2023-05-03T23:58:38.800Z,101625.84
